sensor_id;sensor_type;location;lat;lon;timestamp;pressure;altitude;pressure_sealevel;temperature;humidity
53889;BME280;41337;51.400;-2.342;2022-08-03T00:02:25;100875.72;;;20.82;100.00
53889;BME280;41337;51.400;-2.342;2022-08-03T00:07:26;100873.38;;;20.75;100.00
53889;BME280;41337;51.400;-2.342;2022-08-03T00:12:27;100873.25;;;20.78;100.00
53889;BME280;41337;51.400;-2.342;2022-08-03T00:17:28;100858.53;;;20.70;100.00
53889;BME280;41337;51.400;-2.342;2022-08-03T00:22:29;100862.47;;;20.82;100.00
53889;BME280;41337;51.400;-2.342;2022-08-03T00:27:29;100860.63;;;20.61;100.00
53889;BME280;41337;51.400;-2.342;2022-08-03T00:32:30;100864.25;;;20.82;100.00
53889;BME280;41337;51.400;-2.342;2022-08-03T00:37:32;100859.28;;;20.50;100.00
53889;BME280;41337;51.400;-2.342;2022-08-03T00:42:57;100840.47;;;20.58;100.00
53889;BME280;41337;51.400;-2.342;2022-08-03T00:47:59;100841.38;;;20.57;100.00
53889;BME280;41337;51.400;-2.342;2022-08-03T00:53:05;100841.97;;;20.42;100.00
53889;BME280;41337;51.400;-2.342;2022-08-03T00:58:06;100834.31;;;20.34;100.00
53889;BME280;41337;51.400;-2.342;2022-08-03T01:03:09;100828.41;;;20.27;100.00
53889;BME280;41337;51.400;-2.342;2022-08-03T01:08:17;100831.78;;;20.31;100.00
53889;BME280;41337;51.400;-2.342;2022-08-03T01:24:17;100807.13;;;20.07;100.00
53889;BME280;41337;51.400;-2.342;2022-08-03T01:30:06;100804.41;;;20.08;100.00
53889;BME280;41337;51.400;-2.342;2022-08-03T01:35:13;100804.09;;;20.17;100.00
53889;BME280;41337;51.400;-2.342;2022-08-03T01:40:18;100803.56;;;20.08;100.00
53889;BME280;41337;51.400;-2.342;2022-08-03T01:45:20;100795.16;;;20.20;100.00
53889;BME280;41337;51.400;-2.342;2022-08-03T01:50:27;100793.63;;;20.14;100.00
53889;BME280;41337;51.400;-2.342;2022-08-03T01:55:30;100785.84;;;20.10;100.00
53889;BME280;41337;51.400;-2.342;2022-08-03T02:00:42;100800.31;;;20.23;100.00
53889;BME280;41337;51.400;-2.342;2022-08-03T02:05:47;100799.75;;;20.15;100.00
53889;BME280;41337;51.400;-2.342;2022-08-03T02:10:49;100796.34;;;20.35;100.00
53889;BME280;41337;51.400;-2.342;2022-08-03T02:15:55;100793.56;;;20.16;100.00
53889;BME280;41337;51.400;-2.342;2022-08-03T02:21:01;100796.44;;;20.10;100.00
53889;BME280;41337;51.400;-2.342;2022-08-03T02:26:11;100783.88;;;20.15;100.00
53889;BME280;41337;51.400;-2.342;2022-08-03T02:31:18;100774.00;;;19.96;100.00
53889;BME280;41337;51.400;-2.342;2022-08-03T02:36:27;100775.50;;;20.04;100.00
53889;BME280;41337;51.400;-2.342;2022-08-03T02:41:31;100776.66;;;19.96;100.00
53889;BME280;41337;51.400;-2.342;2022-08-03T02:46:38;100775.13;;;19.89;100.00
53889;BME280;41337;51.400;-2.342;2022-08-03T02:51:47;100786.00;;;20.05;100.00
53889;BME280;41337;51.400;-2.342;2022-08-03T02:56:49;100780.94;;;19.99;100.00
53889;BME280;41337;51.400;-2.342;2022-08-03T03:01:55;100780.25;;;19.94;100.00
53889;BME280;41337;51.400;-2.342;2022-08-03T03:06:57;100767.94;;;19.94;100.00
53889;BME280;41337;51.400;-2.342;2022-08-03T03:11:59;100774.00;;;19.96;100.00
53889;BME280;41337;51.400;-2.342;2022-08-03T03:17:10;100773.28;;;19.93;100.00
53889;BME280;41337;51.400;-2.342;2022-08-03T03:22:32;100765.22;;;19.96;100.00
53889;BME280;41337;51.400;-2.342;2022-08-03T03:27:35;100751.13;;;20.19;100.00
53889;BME280;41337;51.400;-2.342;2022-08-03T03:32:36;100761.41;;;19.79;100.00
53889;BME280;41337;51.400;-2.342;2022-08-03T03:37:37;100756.38;;;19.72;100.00
53889;BME280;41337;51.400;-2.342;2022-08-03T03:42:38;100754.34;;;19.80;100.00
53889;BME280;41337;51.400;-2.342;2022-08-03T03:47:39;100751.00;;;19.98;100.00
53889;BME280;41337;51.400;-2.342;2022-08-03T03:52:40;100752.84;;;19.71;100.00
53889;BME280;41337;51.400;-2.342;2022-08-03T03:57:41;100741.66;;;19.65;100.00
53889;BME280;41337;51.400;-2.342;2022-08-03T04:02:48;100750.78;;;20.05;100.00
53889;BME280;41337;51.400;-2.342;2022-08-03T04:08:00;100749.31;;;19.72;100.00
53889;BME280;41337;51.400;-2.342;2022-08-03T04:18:46;100749.53;;;19.66;100.00
53889;BME280;41337;51.400;-2.342;2022-08-03T04:23:55;100745.34;;;19.60;100.00
53889;BME280;41337;51.400;-2.342;2022-08-03T04:29:05;100744.13;;;19.69;100.00
53889;BME280;41337;51.400;-2.342;2022-08-03T04:34:13;100740.75;;;19.66;100.00
53889;BME280;41337;51.400;-2.342;2022-08-03T04:39:19;100737.16;;;19.68;100.00
53889;BME280;41337;51.400;-2.342;2022-08-03T04:44:24;100735.25;;;19.72;100.00
53889;BME280;41337;51.400;-2.342;2022-08-03T04:49:27;100734.78;;;19.84;100.00
53889;BME280;41337;51.400;-2.342;2022-08-03T04:54:42;100728.88;;;19.77;100.00
53889;BME280;41337;51.400;-2.342;2022-08-03T04:59:43;100726.97;;;19.81;100.00
53889;BME280;41337;51.400;-2.342;2022-08-03T05:04:44;100727.75;;;19.85;100.00
53889;BME280;41337;51.400;-2.342;2022-08-03T05:09:46;100743.97;;;19.97;100.00
53889;BME280;41337;51.400;-2.342;2022-08-03T05:14:46;100742.34;;;19.95;100.00
53889;BME280;41337;51.400;-2.342;2022-08-03T05:19:47;100745.31;;;20.09;100.00
53889;BME280;41337;51.400;-2.342;2022-08-03T05:24:48;100747.47;;;19.99;100.00
53889;BME280;41337;51.400;-2.342;2022-08-03T05:30:14;100746.50;;;20.01;100.00
53889;BME280;41337;51.400;-2.342;2022-08-03T05:35:15;100757.66;;;20.09;100.00
53889;BME280;41337;51.400;-2.342;2022-08-03T05:40:16;100756.41;;;19.95;100.00
53889;BME280;41337;51.400;-2.342;2022-08-03T05:45:17;100763.53;;;20.17;100.00
53889;BME280;41337;51.400;-2.342;2022-08-03T05:50:25;100748.69;;;20.13;100.00
53889;BME280;41337;51.400;-2.342;2022-08-03T05:55:25;100760.75;;;20.20;100.00
53889;BME280;41337;51.400;-2.342;2022-08-03T06:00:26;100746.78;;;19.94;100.00
53889;BME280;41337;51.400;-2.342;2022-08-03T06:05:27;100756.28;;;19.98;100.00
53889;BME280;41337;51.400;-2.342;2022-08-03T06:10:28;100746.28;;;20.07;100.00
53889;BME280;41337;51.400;-2.342;2022-08-03T06:15:29;100764.84;;;20.29;100.00
53889;BME280;41337;51.400;-2.342;2022-08-03T06:20:35;100761.03;;;20.36;100.00
53889;BME280;41337;51.400;-2.342;2022-08-03T06:25:36;100770.38;;;20.45;100.00
53889;BME280;41337;51.400;-2.342;2022-08-03T06:30:37;100772.91;;;20.48;100.00
53889;BME280;41337;51.400;-2.342;2022-08-03T06:35:38;100767.38;;;20.54;100.00
53889;BME280;41337;51.400;-2.342;2022-08-03T06:40:39;100744.41;;;20.32;100.00
53889;BME280;41337;51.400;-2.342;2022-08-03T06:45:40;100720.59;;;20.32;100.00
53889;BME280;41337;51.400;-2.342;2022-08-03T06:50:41;100734.56;;;20.36;100.00
53889;BME280;41337;51.400;-2.342;2022-08-03T06:55:47;100737.28;;;20.34;100.00
53889;BME280;41337;51.400;-2.342;2022-08-03T07:00:47;100726.53;;;20.15;100.00
53889;BME280;41337;51.400;-2.342;2022-08-03T07:05:49;100744.66;;;20.26;100.00
53889;BME280;41337;51.400;-2.342;2022-08-03T07:10:50;100739.63;;;20.42;100.00
53889;BME280;41337;51.400;-2.342;2022-08-03T07:15:51;100726.50;;;20.39;100.00
53889;BME280;41337;51.400;-2.342;2022-08-03T07:20:52;100745.41;;;20.52;100.00
53889;BME280;41337;51.400;-2.342;2022-08-03T07:25:53;100758.88;;;20.46;100.00
53889;BME280;41337;51.400;-2.342;2022-08-03T07:30:53;100745.38;;;20.30;100.00
53889;BME280;41337;51.400;-2.342;2022-08-03T07:36:00;100743.88;;;20.24;100.00
53889;BME280;41337;51.400;-2.342;2022-08-03T07:41:02;100731.75;;;20.41;100.00
53889;BME280;41337;51.400;-2.342;2022-08-03T07:46:03;100757.03;;;20.48;100.00
53889;BME280;41337;51.400;-2.342;2022-08-03T07:51:04;100770.53;;;20.42;100.00
53889;BME280;41337;51.400;-2.342;2022-08-03T07:56:05;100767.84;;;20.65;100.00
53889;BME280;41337;51.400;-2.342;2022-08-03T08:01:06;100778.69;;;20.81;100.00
53889;BME280;41337;51.400;-2.342;2022-08-03T08:06:11;100800.72;;;21.04;100.00
53889;BME280;41337;51.400;-2.342;2022-08-03T08:11:12;100796.22;;;20.84;100.00
53889;BME280;41337;51.400;-2.342;2022-08-03T08:16:13;100796.75;;;20.92;100.00
53889;BME280;41337;51.400;-2.342;2022-08-03T08:21:14;100805.25;;;21.00;100.00
53889;BME280;41337;51.400;-2.342;2022-08-03T08:26:15;100798.78;;;21.07;100.00
53889;BME280;41337;51.400;-2.342;2022-08-03T08:31:16;100800.13;;;21.38;100.00
53889;BME280;41337;51.400;-2.342;2022-08-03T08:36:17;100809.75;;;21.61;100.00
53889;BME280;41337;51.400;-2.342;2022-08-03T08:41:17;100810.69;;;21.81;100.00
53889;BME280;41337;51.400;-2.342;2022-08-03T08:46:19;100815.81;;;22.24;100.00
53889;BME280;41337;51.400;-2.342;2022-08-03T08:51:29;100826.22;;;22.47;100.00
53889;BME280;41337;51.400;-2.342;2022-08-03T08:56:31;100821.25;;;22.78;100.00
53889;BME280;41337;51.400;-2.342;2022-08-03T09:01:36;100835.31;;;22.80;100.00
53889;BME280;41337;51.400;-2.342;2022-08-03T09:06:37;100827.91;;;22.86;100.00
53889;BME280;41337;51.400;-2.342;2022-08-03T09:11:41;100837.81;;;23.19;100.00
53889;BME280;41337;51.400;-2.342;2022-08-03T09:16:59;100839.66;;;23.00;100.00
53889;BME280;41337;51.400;-2.342;2022-08-03T09:27:10;100838.72;;;23.01;100.00
53889;BME280;41337;51.400;-2.342;2022-08-03T09:32:20;100845.81;;;23.37;100.00
53889;BME280;41337;51.400;-2.342;2022-08-03T09:37:21;100830.47;;;23.24;100.00
53889;BME280;41337;51.400;-2.342;2022-08-03T09:42:28;100857.53;;;22.96;100.00
53889;BME280;41337;51.400;-2.342;2022-08-03T09:47:31;100835.06;;;22.08;100.00
53889;BME280;41337;51.400;-2.342;2022-08-03T09:52:34;100827.06;;;21.50;100.00
53889;BME280;41337;51.400;-2.342;2022-08-03T09:57:46;100810.91;;;21.13;100.00
53889;BME280;41337;51.400;-2.342;2022-08-03T10:02:46;100823.03;;;21.39;100.00
53889;BME280;41337;51.400;-2.342;2022-08-03T10:07:50;100818.53;;;21.21;100.00
53889;BME280;41337;51.400;-2.342;2022-08-03T10:12:51;100825.81;;;21.16;100.00
53889;BME280;41337;51.400;-2.342;2022-08-03T10:17:52;100830.03;;;21.20;100.00
53889;BME280;41337;51.400;-2.342;2022-08-03T10:22:59;100820.41;;;20.97;100.00
53889;BME280;41337;51.400;-2.342;2022-08-03T10:28:09;100853.69;;;21.04;100.00
53889;BME280;41337;51.400;-2.342;2022-08-03T10:33:20;100849.78;;;20.68;100.00
53889;BME280;41337;51.400;-2.342;2022-08-03T10:38:47;100868.19;;;20.71;100.00
53889;BME280;41337;51.400;-2.342;2022-08-03T10:43:58;100895.75;;;20.66;100.00
53889;BME280;41337;51.400;-2.342;2022-08-03T10:49:02;100890.47;;;20.66;100.00
53889;BME280;41337;51.400;-2.342;2022-08-03T10:54:04;100890.19;;;20.74;100.00
53889;BME280;41337;51.400;-2.342;2022-08-03T10:59:05;100866.53;;;20.69;100.00
53889;BME280;41337;51.400;-2.342;2022-08-03T11:09:16;100884.22;;;21.13;100.00
53889;BME280;41337;51.400;-2.342;2022-08-03T11:14:22;100882.88;;;21.02;100.00
53889;BME280;41337;51.400;-2.342;2022-08-03T11:19:45;100873.44;;;20.95;100.00
53889;BME280;41337;51.400;-2.342;2022-08-03T11:35:30;100857.00;;;20.65;100.00
53889;BME280;41337;51.400;-2.342;2022-08-03T11:40:55;100854.66;;;20.56;100.00
53889;BME280;41337;51.400;-2.342;2022-08-03T11:45:57;100876.25;;;20.68;100.00
53889;BME280;41337;51.400;-2.342;2022-08-03T11:51:03;100862.16;;;20.68;100.00
53889;BME280;41337;51.400;-2.342;2022-08-03T11:56:07;100873.41;;;20.49;100.00
53889;BME280;41337;51.400;-2.342;2022-08-03T12:01:08;100859.22;;;20.52;100.00
53889;BME280;41337;51.400;-2.342;2022-08-03T12:06:13;100855.63;;;20.77;100.00
53889;BME280;41337;51.400;-2.342;2022-08-03T12:11:16;100874.66;;;21.08;100.00
53889;BME280;41337;51.400;-2.342;2022-08-03T12:16:24;100879.88;;;21.32;100.00
53889;BME280;41337;51.400;-2.342;2022-08-03T12:21:25;100922.97;;;21.37;100.00
53889;BME280;41337;51.400;-2.342;2022-08-03T12:26:28;100921.50;;;21.30;100.00
53889;BME280;41337;51.400;-2.342;2022-08-03T12:31:29;100913.97;;;21.41;100.00
53889;BME280;41337;51.400;-2.342;2022-08-03T12:36:33;100932.31;;;21.68;100.00
53889;BME280;41337;51.400;-2.342;2022-08-03T12:41:38;100940.16;;;21.92;100.00
53889;BME280;41337;51.400;-2.342;2022-08-03T12:46:40;100922.91;;;22.02;100.00
53889;BME280;41337;51.400;-2.342;2022-08-03T12:57:07;100945.56;;;22.31;100.00
53889;BME280;41337;51.400;-2.342;2022-08-03T13:07:18;100952.63;;;22.89;100.00
53889;BME280;41337;51.400;-2.342;2022-08-03T13:12:24;100945.88;;;22.63;100.00
53889;BME280;41337;51.400;-2.342;2022-08-03T13:17:26;100959.38;;;22.78;100.00
53889;BME280;41337;51.400;-2.342;2022-08-03T13:22:27;100947.56;;;22.25;100.00
53889;BME280;41337;51.400;-2.342;2022-08-03T13:27:36;100948.63;;;22.00;100.00
53889;BME280;41337;51.400;-2.342;2022-08-03T13:32:38;100940.25;;;22.31;100.00
53889;BME280;41337;51.400;-2.342;2022-08-03T13:37:39;100946.53;;;22.29;100.00
53889;BME280;41337;51.400;-2.342;2022-08-03T13:42:44;100951.84;;;22.87;100.00
53889;BME280;41337;51.400;-2.342;2022-08-03T13:47:44;100953.06;;;23.18;100.00
53889;BME280;41337;51.400;-2.342;2022-08-03T13:52:45;100965.38;;;23.38;100.00
53889;BME280;41337;51.400;-2.342;2022-08-03T13:57:46;100961.69;;;23.23;100.00
53889;BME280;41337;51.400;-2.342;2022-08-03T14:02:47;100966.88;;;23.44;100.00
53889;BME280;41337;51.400;-2.342;2022-08-03T14:07:48;100953.47;;;23.82;100.00
53889;BME280;41337;51.400;-2.342;2022-08-03T14:12:49;100953.88;;;23.92;100.00
53889;BME280;41337;51.400;-2.342;2022-08-03T14:17:50;100953.06;;;24.07;100.00
53889;BME280;41337;51.400;-2.342;2022-08-03T14:22:51;100952.84;;;23.94;100.00
53889;BME280;41337;51.400;-2.342;2022-08-03T14:27:52;100945.00;;;24.09;98.53
53889;BME280;41337;51.400;-2.342;2022-08-03T14:32:57;100938.59;;;24.13;96.44
53889;BME280;41337;51.400;-2.342;2022-08-03T14:37:58;100926.38;;;24.26;100.00
53889;BME280;41337;51.400;-2.342;2022-08-03T14:42:59;100933.41;;;24.92;92.46
53889;BME280;41337;51.400;-2.342;2022-08-03T14:48:00;100924.44;;;25.25;90.70
53889;BME280;41337;51.400;-2.342;2022-08-03T14:53:01;100925.09;;;25.61;84.72
53889;BME280;41337;51.400;-2.342;2022-08-03T14:58:08;100920.84;;;26.03;78.08
53889;BME280;41337;51.400;-2.342;2022-08-03T15:03:09;100917.16;;;25.90;83.41
53889;BME280;41337;51.400;-2.342;2022-08-03T15:08:09;100913.13;;;26.27;79.02
53889;BME280;41337;51.400;-2.342;2022-08-03T15:13:11;100913.09;;;26.42;73.50
53889;BME280;41337;51.400;-2.342;2022-08-03T15:18:15;100906.72;;;26.44;67.78
53889;BME280;41337;51.400;-2.342;2022-08-03T15:23:17;100889.19;;;26.40;67.46
53889;BME280;41337;51.400;-2.342;2022-08-03T15:28:18;100902.75;;;26.93;65.28
53889;BME280;41337;51.400;-2.342;2022-08-03T15:33:20;100892.00;;;26.80;66.68
53889;BME280;41337;51.400;-2.342;2022-08-03T15:38:21;100892.78;;;27.37;60.50
53889;BME280;41337;51.400;-2.342;2022-08-03T15:43:25;100896.34;;;27.50;56.18
53889;BME280;41337;51.400;-2.342;2022-08-03T15:48:26;100903.72;;;27.46;52.17
53889;BME280;41337;51.400;-2.342;2022-08-03T15:53:27;100888.59;;;27.33;58.29
53889;BME280;41337;51.400;-2.342;2022-08-03T15:58:28;100883.78;;;28.04;52.49
53889;BME280;41337;51.400;-2.342;2022-08-03T16:03:29;100895.88;;;28.09;50.10
53889;BME280;41337;51.400;-2.342;2022-08-03T16:08:36;100884.72;;;28.28;53.45
53889;BME280;41337;51.400;-2.342;2022-08-03T16:13:37;100893.13;;;28.61;48.06
53889;BME280;41337;51.400;-2.342;2022-08-03T16:18:38;100887.72;;;28.24;50.36
53889;BME280;41337;51.400;-2.342;2022-08-03T16:23:39;100876.00;;;28.37;48.21
53889;BME280;41337;51.400;-2.342;2022-08-03T16:28:46;100886.09;;;28.21;49.57
53889;BME280;41337;51.400;-2.342;2022-08-03T16:33:46;100886.72;;;28.37;47.16
53889;BME280;41337;51.400;-2.342;2022-08-03T16:38:47;100898.34;;;28.12;47.29
53889;BME280;41337;51.400;-2.342;2022-08-03T16:43:48;100891.16;;;28.00;47.49
53889;BME280;41337;51.400;-2.342;2022-08-03T16:48:49;100904.28;;;27.77;49.96
53889;BME280;41337;51.400;-2.342;2022-08-03T16:53:55;100895.31;;;27.91;49.01
53889;BME280;41337;51.400;-2.342;2022-08-03T16:58:56;100888.34;;;28.27;48.45
53889;BME280;41337;51.400;-2.342;2022-08-03T17:03:59;100899.19;;;28.26;48.05
53889;BME280;41337;51.400;-2.342;2022-08-03T17:09:12;100901.22;;;28.09;47.56
53889;BME280;41337;51.400;-2.342;2022-08-03T17:14:17;100920.22;;;27.53;51.28
53889;BME280;41337;51.400;-2.342;2022-08-03T17:19:25;100908.94;;;26.93;53.96
53889;BME280;41337;51.400;-2.342;2022-08-03T17:24:33;100905.78;;;26.31;59.33
53889;BME280;41337;51.400;-2.342;2022-08-03T17:29:37;100920.38;;;26.68;58.18
53889;BME280;41337;51.400;-2.342;2022-08-03T17:34:42;100926.38;;;26.43;61.46
53889;BME280;41337;51.400;-2.342;2022-08-03T17:39:44;100926.25;;;26.59;61.57
53889;BME280;41337;51.400;-2.342;2022-08-03T17:44:51;100924.19;;;27.06;56.08
53889;BME280;41337;51.400;-2.342;2022-08-03T17:49:52;100930.38;;;26.22;60.58
53889;BME280;41337;51.400;-2.342;2022-08-03T17:55:16;100923.84;;;25.52;63.16
53889;BME280;41337;51.400;-2.342;2022-08-03T18:00:18;100925.34;;;24.94;68.75
53889;BME280;41337;51.400;-2.342;2022-08-03T18:05:38;100913.97;;;25.22;63.32
53889;BME280;41337;51.400;-2.342;2022-08-03T18:10:40;100914.94;;;25.37;60.48
53889;BME280;41337;51.400;-2.342;2022-08-03T18:21:04;100913.53;;;25.46;59.08
53889;BME280;41337;51.400;-2.342;2022-08-03T18:26:09;100923.59;;;25.25;59.80
53889;BME280;41337;51.400;-2.342;2022-08-03T18:31:14;100927.84;;;25.29;59.04
53889;BME280;41337;51.400;-2.342;2022-08-03T18:36:18;100935.66;;;24.68;64.39
53889;BME280;41337;51.400;-2.342;2022-08-03T18:41:27;100932.91;;;24.36;66.58
53889;BME280;41337;51.400;-2.342;2022-08-03T18:53:02;100956.34;;;23.23;78.61
53889;BME280;41337;51.400;-2.342;2022-08-03T18:58:27;100945.78;;;23.03;85.22
53889;BME280;41337;51.400;-2.342;2022-08-03T19:03:35;100935.53;;;22.76;88.56
53889;BME280;41337;51.400;-2.342;2022-08-03T19:08:44;100948.00;;;22.55;91.59
53889;BME280;41337;51.400;-2.342;2022-08-03T19:13:49;100961.09;;;22.39;94.11
53889;BME280;41337;51.400;-2.342;2022-08-03T19:18:50;100958.19;;;22.45;94.40
53889;BME280;41337;51.400;-2.342;2022-08-03T19:23:58;100958.00;;;22.29;95.05
53889;BME280;41337;51.400;-2.342;2022-08-03T19:29:00;100951.75;;;22.10;95.21
53889;BME280;41337;51.400;-2.342;2022-08-03T19:34:02;100963.75;;;21.77;98.02
53889;BME280;41337;51.400;-2.342;2022-08-03T19:39:04;100967.84;;;21.64;99.57
53889;BME280;41337;51.400;-2.342;2022-08-03T19:44:13;100977.47;;;21.67;100.00
53889;BME280;41337;51.400;-2.342;2022-08-03T19:49:18;100978.25;;;21.69;100.00
53889;BME280;41337;51.400;-2.342;2022-08-03T19:54:23;100989.03;;;21.64;100.00
53889;BME280;41337;51.400;-2.342;2022-08-03T19:59:26;100982.88;;;21.63;100.00
53889;BME280;41337;51.400;-2.342;2022-08-03T20:04:27;100988.13;;;21.65;100.00
53889;BME280;41337;51.400;-2.342;2022-08-03T20:09:28;100987.94;;;21.48;100.00
53889;BME280;41337;51.400;-2.342;2022-08-03T20:14:29;100988.31;;;21.38;100.00
53889;BME280;41337;51.400;-2.342;2022-08-03T20:19:34;100984.72;;;21.39;100.00
53889;BME280;41337;51.400;-2.342;2022-08-03T20:24:39;100988.03;;;21.44;100.00
53889;BME280;41337;51.400;-2.342;2022-08-03T20:29:48;100987.38;;;21.39;100.00
53889;BME280;41337;51.400;-2.342;2022-08-03T20:34:49;100993.16;;;21.27;100.00
53889;BME280;41337;51.400;-2.342;2022-08-03T20:39:49;100990.38;;;21.08;100.00
53889;BME280;41337;51.400;-2.342;2022-08-03T20:44:57;100993.94;;;20.83;100.00
53889;BME280;41337;51.400;-2.342;2022-08-03T20:49:58;100998.72;;;20.74;100.00
53889;BME280;41337;51.400;-2.342;2022-08-03T20:54:59;100995.91;;;20.53;100.00
53889;BME280;41337;51.400;-2.342;2022-08-03T21:00:06;100999.81;;;20.43;100.00
53889;BME280;41337;51.400;-2.342;2022-08-03T21:05:14;100996.09;;;20.23;100.00
53889;BME280;41337;51.400;-2.342;2022-08-03T21:10:15;101001.03;;;20.07;100.00
53889;BME280;41337;51.400;-2.342;2022-08-03T21:15:17;101009.16;;;20.03;100.00
53889;BME280;41337;51.400;-2.342;2022-08-03T21:20:29;101012.53;;;19.79;100.00
53889;BME280;41337;51.400;-2.342;2022-08-03T21:25:33;101013.75;;;19.69;100.00
53889;BME280;41337;51.400;-2.342;2022-08-03T21:30:35;101010.72;;;19.53;100.00
53889;BME280;41337;51.400;-2.342;2022-08-03T21:35:36;101011.06;;;19.42;100.00
53889;BME280;41337;51.400;-2.342;2022-08-03T21:40:41;101013.53;;;19.19;100.00
53889;BME280;41337;51.400;-2.342;2022-08-03T21:46:11;101009.41;;;19.10;100.00
53889;BME280;41337;51.400;-2.342;2022-08-03T21:51:16;101003.59;;;19.27;100.00
53889;BME280;41337;51.400;-2.342;2022-08-03T21:56:20;100997.28;;;19.04;100.00
53889;BME280;41337;51.400;-2.342;2022-08-03T22:01:24;101002.50;;;18.75;100.00
53889;BME280;41337;51.400;-2.342;2022-08-03T22:06:28;100995.69;;;18.67;100.00
53889;BME280;41337;51.400;-2.342;2022-08-03T22:11:29;100993.31;;;18.57;100.00
53889;BME280;41337;51.400;-2.342;2022-08-03T22:16:30;100989.78;;;18.58;100.00
53889;BME280;41337;51.400;-2.342;2022-08-03T22:21:32;101000.38;;;18.56;100.00
53889;BME280;41337;51.400;-2.342;2022-08-03T22:26:38;100997.72;;;18.58;100.00
53889;BME280;41337;51.400;-2.342;2022-08-03T22:32:00;101004.16;;;18.47;100.00
53889;BME280;41337;51.400;-2.342;2022-08-03T22:37:08;100999.81;;;18.45;100.00
53889;BME280;41337;51.400;-2.342;2022-08-03T22:42:12;101006.72;;;18.50;100.00
53889;BME280;41337;51.400;-2.342;2022-08-03T22:47:17;101007.53;;;18.52;100.00
53889;BME280;41337;51.400;-2.342;2022-08-03T22:52:19;101010.81;;;18.61;100.00
53889;BME280;41337;51.400;-2.342;2022-08-03T22:57:20;101011.06;;;18.51;100.00
53889;BME280;41337;51.400;-2.342;2022-08-03T23:02:28;101013.03;;;18.43;100.00
53889;BME280;41337;51.400;-2.342;2022-08-03T23:07:32;101016.66;;;18.41;100.00
53889;BME280;41337;51.400;-2.342;2022-08-03T23:12:38;101023.03;;;18.32;100.00
53889;BME280;41337;51.400;-2.342;2022-08-03T23:17:55;101019.06;;;18.15;100.00
53889;BME280;41337;51.400;-2.342;2022-08-03T23:22:57;101014.19;;;18.00;100.00
53889;BME280;41337;51.400;-2.342;2022-08-03T23:28:00;101021.44;;;17.92;100.00
53889;BME280;41337;51.400;-2.342;2022-08-03T23:33:05;101017.38;;;17.77;100.00
53889;BME280;41337;51.400;-2.342;2022-08-03T23:38:08;101006.25;;;17.64;100.00
53889;BME280;41337;51.400;-2.342;2022-08-03T23:43:10;101011.72;;;17.55;100.00
53889;BME280;41337;51.400;-2.342;2022-08-03T23:48:15;101005.53;;;17.57;100.00
53889;BME280;41337;51.400;-2.342;2022-08-03T23:53:17;101009.06;;;17.56;100.00
